Time;durP1;ratioP1;P1;durP2;ratioP2;P2;SDS_P1;SDS_P2;PMS_P1;PMS_P2;Temp;Humidity;BMP_temperature;BMP_pressure;BME280_temperature;BME280_humidity;BME280_pressure;Samples;Min_cycle;Max_cycle;Signal;HPM_P1;HPM_P2
2022/08/04 00:01:49;;;;;;;16.73;6.30;;;19.00;99.90;;;;;;4922848;29;20082;-82
2022/08/04 00:04:29;;;;;;;10.50;6.40;;;18.90;99.90;;;;;;4921960;29;20079;-82
2022/08/04 00:07:24;;;;;;;10.85;7.63;;;18.80;99.90;;;;;;4923122;29;20410;-82
2022/08/04 00:10:00;;;;;;;14.82;6.55;;;18.60;99.90;;;;;;4919484;29;20108;-81
2022/08/04 00:12:29;;;;;;;13.05;7.50;;;18.50;99.90;;;;;;4943926;29;20394;-81
2022/08/04 00:14:58;;;;;;;9.95;6.70;;;18.40;99.90;;;;;;4919932;29;20127;-81
2022/08/04 00:17:30;;;;;;;9.75;6.25;;;18.30;99.90;;;;;;4917355;29;20071;-81
2022/08/04 00:20:00;;;;;;;9.45;6.85;;;18.30;99.90;;;;;;4922504;29;20070;-81
2022/08/04 00:22:29;;;;;;;13.30;7.22;;;18.30;99.90;;;;;;4929976;29;20051;-81
2022/08/04 00:24:57;;;;;;;11.60;7.25;;;18.30;99.90;;;;;;4915555;29;20128;-82
2022/08/04 00:27:23;;;;;;;12.02;7.70;;;18.40;99.90;;;;;;4911573;29;20055;-82
2022/08/04 00:29:48;;;;;;;15.93;9.40;;;18.40;99.90;;;;;;4922018;29;20055;-82
2022/08/04 00:32:16;;;;;;;16.05;8.32;;;18.40;99.90;;;;;;4923839;29;20067;-82
2022/08/04 00:34:43;;;;;;;13.23;7.45;;;18.50;99.90;;;;;;4920562;29;20035;-82
2022/08/04 00:37:09;;;;;;;10.93;6.00;;;18.50;99.90;;;;;;4926102;29;20042;-81
2022/08/04 00:39:35;;;;;;;13.40;8.32;;;18.40;99.90;;;;;;4918395;29;20039;-82
2022/08/04 00:42:19;;;;;;;13.43;7.47;;;18.40;99.90;;;;;;4922400;29;20563;-81
2022/08/04 00:45:15;;;;;;;15.98;8.23;;;18.50;99.90;;;;;;4923452;29;20043;-82
2022/08/04 00:48:02;;;;;;;13.35;7.80;;;18.50;99.90;;;;;;4912851;29;20570;-82
2022/08/04 00:50:45;;;;;;;15.73;8.52;;;18.50;99.90;;;;;;4909595;29;20050;-82
2022/08/04 00:53:33;;;;;;;15.23;9.27;;;18.50;99.90;;;;;;4911196;29;20059;-83
2022/08/04 00:56:26;;;;;;;15.20;7.65;;;18.60;99.90;;;;;;4934432;28;20071;-83
2022/08/04 00:59:01;;;;;;;13.40;8.73;;;18.60;99.90;;;;;;4929117;29;20040;-83
2022/08/04 01:01:26;;;;;;;;;;;18.60;99.90;;;;;;4910039;29;20402;-83
2022/08/04 01:03:58;;;;;;;15.02;7.30;;;18.60;99.90;;;;;;4919094;29;20025;-83
2022/08/04 01:06:31;;;;;;;12.75;8.77;;;18.60;99.90;;;;;;4918721;29;20116;-83
2022/08/04 01:09:02;;;;;;;15.27;8.35;;;18.50;99.90;;;;;;4919461;29;20056;-83
2022/08/04 01:11:57;;;;;;;10.93;7.78;;;18.50;99.90;;;;;;4895986;29;20063;-83
2022/08/04 01:14:44;;;;;;;11.15;6.90;;;18.50;99.90;;;;;;4924440;29;20051;-83
2022/08/04 01:17:39;;;;;;;12.10;7.88;;;18.40;99.90;;;;;;4920298;29;20054;-84
2022/08/04 01:20:10;;;;;;;10.02;6.70;;;18.50;99.90;;;;;;4899394;29;20041;-83
2022/08/04 01:22:38;;;;;;;13.18;7.00;;;18.50;99.90;;;;;;4924353;29;20055;-83
2022/08/04 01:25:20;;;;;;;13.95;7.63;;;18.50;99.90;;;;;;4924341;29;20479;-83
2022/08/04 01:28:11;;;;;;;11.90;6.50;;;18.50;99.90;;;;;;4922008;29;20113;-84
2022/08/04 01:30:41;;;;;;;11.88;6.85;;;18.50;99.90;;;;;;4919955;29;20052;-83
2022/08/04 01:33:13;;;;;;;13.75;7.13;;;18.50;99.90;;;;;;4934075;29;20044;-84
2022/08/04 01:35:53;;;;;;;12.27;7.00;;;18.50;99.90;;;;;;4912285;29;20036;-84
2022/08/04 01:38:27;;;;;;;9.95;6.70;;;18.40;99.90;;;;;;4925751;29;20126;-84
2022/08/04 01:40:56;;;;;;;13.65;6.40;;;18.40;99.90;;;;;;4921938;29;20494;-84
2022/08/04 01:43:23;;;;;;;18.73;9.05;;;18.40;99.90;;;;;;4921516;29;20047;-84
2022/08/04 01:45:57;;;;;;;10.85;6.22;;;18.40;99.90;;;;;;4923369;29;20043;-85
2022/08/04 01:48:24;;;;;;;12.65;7.55;;;18.40;99.90;;;;;;4920030;29;20119;-84
2022/08/04 01:50:53;;;;;;;17.33;6.38;;;18.30;99.90;;;;;;4919688;29;20067;-82
2022/08/04 01:53:20;;;;;;;12.88;6.63;;;18.30;99.90;;;;;;4911143;29;20043;-83
2022/08/04 01:55:48;;;;;;;14.65;7.60;;;18.30;99.90;;;;;;4913847;29;20044;-82
2022/08/04 01:58:18;;;;;;;12.68;7.90;;;18.30;99.90;;;;;;4930202;29;20102;-83
2022/08/04 02:01:07;;;;;;;14.15;7.03;;;18.30;99.90;;;;;;4917817;29;20078;-82
2022/08/04 02:03:33;;;;;;;14.38;8.18;;;18.30;99.90;;;;;;4913698;29;20467;-82
2022/08/04 02:06:45;;;;;;;13.23;8.05;;;18.40;99.90;;;;;;4925469;29;20075;-83
2022/08/04 02:09:13;;;;;;;12.43;7.45;;;18.40;99.90;;;;;;4871668;29;20061;-83
2022/08/04 02:11:44;;;;;;;12.13;6.35;;;18.40;99.90;;;;;;4866334;29;20044;-83
2022/08/04 02:14:39;;;;;;;11.43;7.05;;;18.50;99.90;;;;;;4896472;29;20529;-83
2022/08/04 02:17:11;;;;;;;12.38;6.72;;;18.50;99.90;;;;;;4935483;29;20050;-83
2022/08/04 02:20:03;;;;;;;13.68;7.30;;;18.50;99.90;;;;;;4912012;29;20039;-83
2022/08/04 02:22:32;;;;;;;13.20;8.07;;;18.50;99.90;;;;;;4895807;29;20051;-83
2022/08/04 02:25:06;;;;;;;13.68;7.45;;;18.50;99.90;;;;;;4920610;29;20407;-84
2022/08/04 02:27:50;;;;;;;14.18;7.55;;;18.50;99.90;;;;;;4916012;29;20075;-84
2022/08/04 02:30:17;;;;;;;13.20;8.02;;;18.50;99.90;;;;;;4915457;29;20695;-83
2022/08/04 02:32:45;;;;;;;11.18;6.88;;;18.50;99.90;;;;;;4914920;29;20388;-84
2022/08/04 02:35:14;;;;;;;15.55;7.32;;;18.50;99.90;;;;;;4920891;29;20040;-84
2022/08/04 02:37:46;;;;;;;17.58;7.38;;;18.50;99.90;;;;;;4903854;29;20494;-83
2022/08/04 02:40:19;;;;;;;12.95;7.05;;;18.50;99.90;;;;;;4916074;29;20124;-84
2022/08/04 02:42:45;;;;;;;13.35;8.20;;;18.50;99.90;;;;;;4932501;29;20547;-84
2022/08/04 02:45:12;;;;;;;10.52;6.25;;;18.50;99.90;;;;;;4932995;29;20036;-84
2022/08/04 02:47:38;;;;;;;13.57;7.35;;;18.60;99.90;;;;;;4900455;29;20039;-83
2022/08/04 02:50:07;;;;;;;9.98;6.38;;;18.50;99.90;;;;;;4902811;29;20036;-84
2022/08/04 02:52:34;;;;;;;13.57;6.90;;;18.50;99.90;;;;;;4923873;29;20105;-84
2022/08/04 02:55:01;;;;;;;11.93;7.38;;;18.40;99.90;;;;;;4918683;29;20075;-85
2022/08/04 02:57:29;;;;;;;12.07;7.25;;;18.40;99.90;;;;;;4922486;29;20119;-84
2022/08/04 03:00:12;;;;;;;12.68;7.03;;;18.40;99.90;;;;;;4920687;29;20036;-85
2022/08/04 03:02:50;;;;;;;12.48;7.07;;;18.40;99.90;;;;;;4914408;29;20089;-84
2022/08/04 03:05:18;;;;;;;10.90;7.15;;;18.40;99.90;;;;;;4917304;29;20094;-84
2022/08/04 03:08:16;;;;;;;11.40;7.07;;;18.40;99.90;;;;;;4920822;29;20048;-84
2022/08/04 03:10:50;;;;;;;12.05;7.50;;;18.40;99.90;;;;;;4906138;29;20041;-84
2022/08/04 03:13:36;;;;;;;17.08;9.52;;;18.40;99.90;;;;;;4921291;29;20499;-84
2022/08/04 03:16:28;;;;;;;10.15;7.10;;;18.40;99.90;;;;;;4933342;28;20040;-85
2022/08/04 03:19:35;;;;;;;14.13;7.22;;;18.30;99.90;;;;;;4898103;29;20048;-84
2022/08/04 03:22:37;;;;;;;11.52;6.72;;;18.30;99.90;;;;;;4911450;29;20512;-85
2022/08/04 03:25:24;;;;;;;13.07;7.47;;;18.30;99.90;;;;;;4910965;29;20059;-84
2022/08/04 03:28:17;;;;;;;11.75;6.10;;;18.30;99.90;;;;;;4917243;29;20043;-84
2022/08/04 03:31:06;;;;;;;11.48;6.68;;;18.30;99.90;;;;;;4924167;29;20339;-83
2022/08/04 03:34:08;;;;;;;11.05;6.95;;;18.30;99.90;;;;;;4903805;29;20047;-83
2022/08/04 03:36:52;;;;;;;9.88;5.10;;;18.30;99.90;;;;;;4917228;29;20043;-83
2022/08/04 03:39:43;;;;;;;10.70;6.25;;;18.30;99.90;;;;;;4914062;29;20071;-82
2022/08/04 03:42:45;;;;;;;10.50;6.60;;;18.20;99.90;;;;;;4916859;29;20443;-83
2022/08/04 03:45:33;;;;;;;11.80;7.25;;;18.20;99.90;;;;;;4919788;29;20048;-83
2022/08/04 03:48:04;;;;;;;17.98;7.03;;;18.10;99.90;;;;;;4941584;29;20043;-83
2022/08/04 03:53:07;;;;;;;15.75;6.88;;;18.10;99.90;;;;;;4923707;29;20104;-83
2022/08/04 03:54:16;;;;;;;10.05;6.95;;;18.10;99.90;;;;;;4923454;29;20465;-83
2022/08/04 03:57:02;;;;;;;13.45;8.48;;;18.10;99.90;;;;;;4923358;29;20044;-83
2022/08/04 03:59:58;;;;;;;13.63;8.20;;;18.10;99.90;;;;;;4923256;29;20047;-83
2022/08/04 04:02:33;;;;;;;17.20;7.90;;;18.20;99.90;;;;;;4915485;29;20095;-83
2022/08/04 04:05:39;;;;;;;11.45;9.07;;;18.20;99.90;;;;;;4920932;29;20490;-83
2022/08/04 04:08:17;;;;;;;;;;;18.20;99.90;;;;;;4906830;29;20503;-85
2022/08/04 04:11:12;;;;;;;10.85;6.85;;;18.20;99.90;;;;;;4919205;29;19934;-86
2022/08/04 04:14:22;;;;;;;10.40;6.70;;;18.20;99.90;;;;;;4908306;29;20040;-84
2022/08/04 04:17:25;;;;;;;12.13;6.80;;;18.30;99.90;;;;;;4924969;29;20135;-86
2022/08/04 04:20:22;;;;;;;16.00;8.05;;;18.30;99.90;;;;;;4920597;29;20059;-84
2022/08/04 04:23:14;;;;;;;17.52;7.78;;;18.30;99.90;;;;;;4916839;29;20052;-84
2022/08/04 04:25:54;;;;;;;12.00;8.38;;;18.40;99.90;;;;;;4918270;29;20040;-84
2022/08/04 04:28:44;;;;;;;10.68;8.25;;;18.40;99.90;;;;;;4935124;29;20130;-84
2022/08/04 04:31:18;;;;;;;12.65;7.57;;;18.40;99.90;;;;;;4908971;29;20479;-84
2022/08/04 04:33:54;;;;;;;14.38;8.52;;;18.50;99.90;;;;;;4913550;29;20043;-84
2022/08/04 04:36:37;;;;;;;13.75;7.07;;;18.50;99.90;;;;;;4933784;29;20047;-86
2022/08/04 04:39:13;;;;;;;12.48;7.20;;;18.50;99.90;;;;;;4936708;29;20495;-84
2022/08/04 04:42:18;;;;;;;14.82;8.07;;;18.50;99.90;;;;;;4920906;29;20048;-83
2022/08/04 04:44:50;;;;;;;17.27;7.70;;;18.60;99.90;;;;;;4877507;29;20147;-82
2022/08/04 04:47:53;;;;;;;16.52;7.63;;;18.60;99.90;;;;;;4898438;29;20036;-83
2022/08/04 04:50:51;;;;;;;19.27;7.70;;;18.70;99.90;;;;;;4912155;29;20059;-83
2022/08/04 04:53:37;;;;;;;17.60;7.45;;;18.90;99.90;;;;;;4919280;29;20118;-83
2022/08/04 04:56:13;;;;;;;14.25;7.18;;;18.90;99.90;;;;;;4924550;29;20499;-83
2022/08/04 04:58:40;;;;;;;18.98;7.40;;;19.00;99.90;;;;;;4923983;29;20090;-83
2022/08/04 05:01:26;;;;;;;14.02;7.70;;;19.10;99.90;;;;;;4938261;29;20410;-83
2022/08/04 05:04:34;;;;;;;14.38;7.75;;;19.10;99.90;;;;;;4920028;29;20078;-82
2022/08/04 05:07:32;;;;;;;21.30;7.93;;;19.20;99.90;;;;;;4922210;29;20051;-82
2022/08/04 05:10:26;;;;;;;14.52;7.53;;;19.20;99.90;;;;;;4921402;29;20512;-83
2022/08/04 05:12:58;;;;;;;14.57;6.70;;;19.20;99.90;;;;;;4916953;29;20043;-83
2022/08/04 05:15:30;;;;;;;12.50;7.32;;;19.20;99.90;;;;;;4904179;29;20179;-83
2022/08/04 05:17:57;;;;;;;17.38;7.97;;;19.30;99.90;;;;;;4914883;29;20039;-83
2022/08/04 05:20:28;;;;;;;20.35;7.63;;;19.40;99.90;;;;;;4914471;29;20415;-83
2022/08/04 05:23:08;;;;;;;11.60;6.72;;;19.40;99.90;;;;;;4914971;29;20048;-83
2022/08/04 05:26:01;;;;;;;19.20;8.48;;;19.50;99.90;;;;;;4936002;28;20044;-83
2022/08/04 05:28:47;;;;;;;17.67;8.85;;;19.70;99.90;;;;;;4909020;29;20056;-82
2022/08/04 05:31:14;;;;;;;;;;;19.80;99.90;;;;;;4926445;29;20036;-83
2022/08/04 05:33:49;;;;;;;11.52;6.85;;;19.90;99.90;;;;;;4922842;29;19919;-83
2022/08/04 05:36:17;;;;;;;14.00;7.50;;;20.00;99.90;;;;;;4926695;29;20040;-84
2022/08/04 05:38:46;;;;;;;13.38;7.05;;;20.10;99.90;;;;;;4917567;29;20083;-84
2022/08/04 05:41:12;;;;;;;12.85;7.55;;;20.20;99.90;;;;;;4920940;29;20103;-84
2022/08/04 05:43:42;;;;;;;11.60;6.30;;;20.20;99.90;;;;;;4934140;29;20076;-84
2022/08/04 05:46:09;;;;;;;12.90;6.82;;;20.30;99.90;;;;;;4926907;29;20043;-84
2022/08/04 05:48:36;;;;;;;14.93;7.60;;;20.30;99.90;;;;;;4916414;29;20074;-84
2022/08/04 05:51:04;;;;;;;12.60;7.03;;;20.40;99.90;;;;;;4923126;29;20035;-84
2022/08/04 05:53:31;;;;;;;19.55;6.43;;;20.40;99.90;;;;;;4930917;29;20486;-84
2022/08/04 05:56:00;;;;;;;15.43;6.28;;;20.50;99.90;;;;;;4908729;29;20040;-83
2022/08/04 05:58:29;;;;;;;11.90;7.25;;;20.60;99.90;;;;;;4924614;29;20086;-83
2022/08/04 06:00:55;;;;;;;12.98;6.88;;;20.70;99.90;;;;;;4917195;29;20407;-83
2022/08/04 06:03:22;;;;;;;15.25;5.10;;;20.70;99.90;;;;;;4923324;29;20063;-84
2022/08/04 06:05:49;;;;;;;13.93;6.47;;;20.80;99.90;;;;;;4938483;28;20800;-83
2022/08/04 06:08:14;;;;;;;12.55;6.70;;;20.80;99.90;;;;;;4918135;29;20091;-83
2022/08/04 06:10:43;;;;;;;8.32;4.72;;;20.90;99.90;;;;;;4911904;29;20045;-84
2022/08/04 06:13:14;;;;;;;11.00;6.70;;;21.00;99.90;;;;;;4922888;29;20184;-83
2022/08/04 06:15:41;;;;;;;12.40;6.63;;;21.00;99.90;;;;;;4919031;29;20036;-83
2022/08/04 06:18:09;;;;;;;11.18;6.93;;;21.00;99.90;;;;;;4936593;29;20410;-84
2022/08/04 06:20:39;;;;;;;11.73;6.15;;;21.00;99.90;;;;;;4925058;29;20043;-83
2022/08/04 06:23:09;;;;;;;12.52;7.65;;;21.10;99.90;;;;;;4918785;29;20403;-83
2022/08/04 06:26:07;;;;;;;12.55;6.75;;;21.20;99.90;;;;;;4912142;29;20143;-83
2022/08/04 06:28:34;;;;;;;13.13;6.18;;;21.30;99.90;;;;;;4904580;29;20044;-84
2022/08/04 06:31:04;;;;;;;11.27;6.65;;;21.40;99.90;;;;;;4921596;29;20052;-84
2022/08/04 06:33:35;;;;;;;8.98;4.47;;;21.60;99.90;;;;;;4920435;29;20110;-83
2022/08/04 06:36:04;;;;;;;9.93;5.40;;;21.70;99.90;;;;;;4926152;29;20040;-84
2022/08/04 06:38:32;;;;;;;6.97;4.80;;;21.80;99.90;;;;;;4915023;29;20071;-84
2022/08/04 06:41:02;;;;;;;9.65;5.38;;;22.00;99.90;;;;;;4931430;29;20090;-83
2022/08/04 06:43:30;;;;;;;10.80;4.85;;;22.10;99.90;;;;;;4918250;29;20398;-84
2022/08/04 06:45:58;;;;;;;9.32;4.40;;;22.20;99.90;;;;;;4921714;29;20047;-83
2022/08/04 06:48:25;;;;;;;11.50;4.30;;;22.40;99.90;;;;;;4923598;29;20043;-83
2022/08/04 06:50:52;;;;;;;8.32;4.22;;;22.50;99.90;;;;;;4905807;29;20100;-86
2022/08/04 06:53:17;;;;;;;8.20;4.07;;;22.60;99.90;;;;;;4911170;29;20046;-83
2022/08/04 06:55:45;;;;;;;7.68;4.10;;;22.70;99.90;;;;;;4931901;29;20048;-85
2022/08/04 06:58:12;;;;;;;8.38;4.10;;;23.00;99.90;;;;;;4916787;29;20043;-84
2022/08/04 07:00:40;;;;;;;9.07;3.50;;;23.20;99.90;;;;;;4904959;29;20084;-83
2022/08/04 07:03:06;;;;;;;8.38;3.72;;;23.50;99.90;;;;;;4911857;29;20039;-85
2022/08/04 07:05:33;;;;;;;7.93;3.15;;;23.80;99.90;;;;;;4913495;29;20043;-85
2022/08/04 07:07:59;;;;;;;8.70;3.40;;;24.00;99.90;;;;;;4910734;29;20040;-83
2022/08/04 07:10:29;;;;;;;5.80;2.95;;;24.30;99.90;;;;;;4918299;29;20387;-84
2022/08/04 07:12:59;;;;;;;12.23;3.13;;;24.60;99.90;;;;;;4913753;29;20047;-84
2022/08/04 07:15:25;;;;;;;10.02;4.03;;;24.80;99.90;;;;;;4932820;29;20047;-84
2022/08/04 07:17:52;;;;;;;9.38;3.63;;;25.10;99.90;;;;;;4917967;29;20059;-84
2022/08/04 07:20:18;;;;;;;10.93;3.38;;;25.30;99.90;;;;;;4919931;29;20091;-83
2022/08/04 07:22:47;;;;;;;6.30;3.00;;;25.50;99.90;;;;;;4917750;29;20047;-84
2022/08/04 07:25:14;;;;;;;8.80;3.60;;;25.60;99.90;;;;;;4936977;29;20060;-83
2022/08/04 07:27:41;;;;;;;7.20;3.05;;;25.60;99.90;;;;;;4918897;29;20138;-84
2022/08/04 07:30:08;;;;;;;6.35;2.70;;;25.70;99.90;;;;;;4912217;29;20031;-84
2022/08/04 07:32:34;;;;;;;6.43;3.35;;;25.80;99.90;;;;;;4921951;29;20048;-83
2022/08/04 07:35:00;;;;;;;8.38;2.92;;;25.90;99.90;;;;;;4916595;29;20047;-83
2022/08/04 07:37:26;;;;;;;7.63;3.17;;;26.10;99.90;;;;;;4924811;23;20533;-79
2022/08/04 07:39:52;;;;;;;8.60;3.53;;;26.00;99.90;;;;;;4891212;29;20040;-79
2022/08/04 07:42:19;;;;;;;4.45;2.40;;;25.90;99.90;;;;;;4893595;29;20044;-79
2022/08/04 07:44:45;;;;;;;6.75;3.50;;;26.00;99.90;;;;;;4885755;29;20048;-79
2022/08/04 07:47:11;;;;;;;5.50;2.50;;;26.10;99.90;;;;;;4895157;29;20092;-79
2022/08/04 07:49:37;;;;;;;7.85;2.75;;;26.40;99.90;;;;;;4891404;29;20044;-79
2022/08/04 07:52:03;;;;;;;9.27;2.70;;;26.70;99.90;;;;;;4895885;29;20069;-79
2022/08/04 07:54:29;;;;;;;4.20;1.65;;;27.00;99.90;;;;;;4902974;29;20040;-79
2022/08/04 07:56:55;;;;;;;9.15;3.05;;;27.20;99.90;;;;;;4896367;29;20131;-79
2022/08/04 07:59:21;;;;;;;5.13;1.80;;;27.30;99.90;;;;;;4903229;29;20119;-79
2022/08/04 08:01:47;;;;;;;6.35;2.22;;;27.30;99.90;;;;;;4904740;29;20036;-78
2022/08/04 08:04:14;;;;;;;6.80;1.98;;;27.20;99.90;;;;;;4907870;29;20048;-79
2022/08/04 08:06:40;;;;;;;6.38;1.95;;;27.20;99.90;;;;;;4904910;29;20054;-78
2022/08/04 08:09:13;;;;;;;9.65;2.28;;;27.00;99.90;;;;;;4902574;29;20473;-79
2022/08/04 08:11:43;;;;;;;5.32;1.50;;;27.00;99.90;;;;;;4899390;29;20049;-78
2022/08/04 08:14:09;;;;;;;6.50;2.40;;;27.00;99.90;;;;;;4905718;29;20039;-78
2022/08/04 08:16:35;;;;;;;6.57;2.60;;;27.20;99.90;;;;;;4898467;29;20048;-78
2022/08/04 08:19:02;;;;;;;10.82;4.53;;;27.30;99.90;;;;;;4904441;29;20199;-78
2022/08/04 08:21:28;;;;;;;6.63;3.47;;;27.50;99.90;;;;;;4905892;29;20473;-79
2022/08/04 08:23:54;;;;;;;9.95;4.20;;;27.70;99.90;;;;;;4907672;29;20136;-78
2022/08/04 08:26:20;;;;;;;7.63;3.97;;;27.80;99.90;;;;;;4907264;29;20055;-78
2022/08/04 08:28:46;;;;;;;11.00;2.78;;;27.90;99.90;;;;;;4906652;29;20052;-78
2022/08/04 08:31:11;;;;;;;6.32;2.13;;;28.20;99.90;;;;;;4910416;29;20064;-79
2022/08/04 08:33:38;;;;;;;6.40;2.05;;;28.50;99.90;;;;;;4914468;29;20044;-78
2022/08/04 08:36:18;;;;;;;5.82;2.55;;;28.70;99.90;;;;;;4927529;29;20055;-78
2022/08/04 08:38:54;;;;;;;4.57;2.13;;;28.80;99.90;;;;;;4929723;29;20056;-78
2022/08/04 08:41:35;;;;;;;6.22;1.92;;;29.00;99.90;;;;;;4909290;29;20062;-78
2022/08/04 08:44:27;;;;;;;7.38;1.08;;;29.30;99.90;;;;;;4908843;29;20036;-79
2022/08/04 08:47:22;;;;;;;5.93;1.38;;;29.50;99.90;;;;;;4908166;29;20078;-79
2022/08/04 08:50:09;;;;;;;7.85;1.58;;;29.70;99.40;;;;;;4890057;29;20060;-79
2022/08/04 08:52:51;;;;;;;7.47;1.23;;;29.70;97.40;;;;;;4912094;29;20495;-78
2022/08/04 08:55:35;;;;;;;5.68;1.67;;;29.70;98.30;;;;;;4913565;29;20399;-78
2022/08/04 08:58:19;;;;;;;4.95;1.73;;;29.80;97.70;;;;;;4909918;29;20462;-79
2022/08/04 09:01:06;;;;;;;9.30;3.25;;;29.80;96.90;;;;;;4907806;29;20056;-78
2022/08/04 09:03:59;;;;;;;4.68;1.80;;;30.00;97.00;;;;;;4907812;29;20407;-78
2022/08/04 09:07:01;;;;;;;10.05;3.83;;;30.10;96.40;;;;;;4909347;29;20403;-79
2022/08/04 09:10:02;;;;;;;6.50;2.85;;;30.10;95.70;;;;;;4909297;29;20096;-78
2022/08/04 09:12:46;;;;;;;6.20;2.30;;;30.20;96.30;;;;;;4882198;29;20054;-78
2022/08/04 09:15:25;;;;;;;9.07;4.10;;;30.40;96.40;;;;;;4908675;29;20372;-78
2022/08/04 09:18:20;;;;;;;4.20;1.35;;;30.70;95.30;;;;;;4909709;29;20040;-78
2022/08/04 09:21:07;;;;;;;6.82;1.65;;;31.10;93.90;;;;;;4902482;29;20104;-79
2022/08/04 09:23:59;;;;;;;3.28;1.10;;;31.20;94.10;;;;;;4906477;29;20051;-79
2022/08/04 09:26:43;;;;;;;6.43;1.55;;;31.60;90.20;;;;;;4906383;29;20036;-79
2022/08/04 09:29:16;;;;;;;;;;;31.90;89.60;;;;;;4906697;29;20122;-79
2022/08/04 09:31:52;;;;;;;4.07;1.10;;;31.90;87.80;;;;;;4908906;29;19923;-79
2022/08/04 09:34:33;;;;;;;8.73;1.33;;;32.00;86.80;;;;;;4907866;29;20187;-79
2022/08/04 09:37:24;;;;;;;3.95;1.02;;;31.90;82.00;;;;;;4907060;29;20044;-79
2022/08/04 09:40:10;;;;;;;7.75;1.73;;;31.90;79.30;;;;;;4881592;29;20040;-79
2022/08/04 09:43:00;;;;;;;8.05;1.60;;;31.90;77.80;;;;;;4905807;29;20047;-79
2022/08/04 09:45:39;;;;;;;3.15;0.88;;;32.00;77.80;;;;;;4908692;29;20044;-79
2022/08/04 09:48:20;;;;;;;4.57;1.10;;;32.10;77.80;;;;;;4908708;29;20098;-79
2022/08/04 09:50:56;;;;;;;4.00;1.40;;;32.30;76.70;;;;;;4910786;29;20067;-79
2022/08/04 09:54:01;;;;;;;3.72;1.13;;;32.50;74.10;;;;;;4905658;29;20036;-79
2022/08/04 09:56:38;;;;;;;8.98;1.45;;;32.50;73.60;;;;;;4904513;29;20028;-79
2022/08/04 09:59:16;;;;;;;5.00;1.35;;;32.30;72.80;;;;;;4907815;29;20059;-79
2022/08/04 10:01:43;;;;;;;5.05;1.50;;;32.10;73.40;;;;;;4907287;29;20045;-79
2022/08/04 10:04:13;;;;;;;4.28;0.90;;;32.10;75.70;;;;;;4908185;29;20375;-79
2022/08/04 10:07:03;;;;;;;4.55;1.20;;;32.10;75.00;;;;;;4907712;29;20152;-79
2022/08/04 10:09:39;;;;;;;2.92;0.95;;;32.00;72.60;;;;;;4905484;29;20044;-79
2022/08/04 10:12:27;;;;;;;3.78;1.33;;;31.80;73.60;;;;;;4892124;29;20044;-79
2022/08/04 10:15:37;;;;;;;4.43;1.20;;;31.50;75.60;;;;;;4906790;29;20086;-79
2022/08/04 10:18:19;;;;;;;3.55;0.85;;;31.30;76.10;;;;;;4898370;29;20665;-79
2022/08/04 10:20:54;;;;;;;9.98;1.35;;;31.20;79.60;;;;;;4908688;29;20104;-79
2022/08/04 10:23:30;;;;;;;3.97;0.95;;;31.00;77.40;;;;;;4907089;29;20124;-79
2022/08/04 10:25:59;;;;;;;5.95;1.17;;;31.00;79.60;;;;;;4910033;29;20054;-79
2022/08/04 10:28:27;;;;;;;2.72;0.90;;;30.90;80.00;;;;;;4909697;29;20040;-79
2022/08/04 10:31:00;;;;;;;5.82;1.55;;;31.00;80.30;;;;;;4908815;29;20040;-80
2022/08/04 10:33:51;;;;;;;4.40;1.15;;;31.30;77.60;;;;;;4914842;29;20495;-79
2022/08/04 10:36:22;;;;;;;6.65;1.40;;;31.50;81.90;;;;;;4915190;29;20048;-79
2022/08/04 10:39:08;;;;;;;8.75;4.28;;;31.80;83.30;;;;;;4897736;29;20095;-79
2022/08/04 10:41:54;;;;;;;7.80;5.28;;;31.90;86.90;;;;;;4906438;29;20074;-79
2022/08/04 10:44:32;;;;;;;6.95;1.90;;;32.10;86.50;;;;;;4904843;29;20144;-79
2022/08/04 10:47:03;;;;;;;8.15;1.98;;;32.30;85.30;;;;;;4902256;29;20036;-79
2022/08/04 10:49:36;;;;;;;7.00;1.92;;;32.30;82.30;;;;;;4907053;29;20040;-79
2022/08/04 10:52:19;;;;;;;8.67;2.17;;;32.30;82.20;;;;;;4907997;29;20103;-79
2022/08/04 10:54:46;;;;;;;4.70;1.48;;;32.30;84.60;;;;;;4906062;29;20055;-79
2022/08/04 10:57:31;;;;;;;9.07;1.95;;;32.00;86.20;;;;;;4903967;29;20095;-79
2022/08/04 11:00:08;;;;;;;;;;;32.00;83.00;;;;;;4905037;29;20127;-79
2022/08/04 11:02:40;;;;;;;9.02;1.95;;;31.80;87.30;;;;;;4911424;29;19919;-79
2022/08/04 11:05:21;;;;;;;5.72;1.52;;;31.90;86.90;;;;;;4909892;29;20462;-79
2022/08/04 11:07:50;;;;;;;5.13;1.95;;;32.00;85.50;;;;;;4901465;29;20141;-79
2022/08/04 11:10:21;;;;;;;8.25;2.03;;;32.10;86.40;;;;;;4908900;29;20044;-79
2022/08/04 11:12:51;;;;;;;2.88;1.63;;;32.40;87.70;;;;;;4908436;29;20044;-79
2022/08/04 11:15:24;;;;;;;8.05;2.45;;;32.30;81.70;;;;;;4906045;29;20641;-79
2022/08/04 11:17:55;;;;;;;4.72;1.60;;;32.10;81.10;;;;;;4909284;29;20103;-79
2022/08/04 11:20:27;;;;;;;2.75;1.00;;;32.20;77.80;;;;;;4904273;29;20119;-79
2022/08/04 11:23:06;;;;;;;5.15;1.02;;;32.10;77.30;;;;;;4910592;29;20096;-79
2022/08/04 11:25:48;;;;;;;2.75;1.33;;;31.90;79.10;;;;;;4913556;29;20059;-79
2022/08/04 11:28:40;;;;;;;4.78;1.20;;;32.00;80.50;;;;;;4905063;29;20413;-79
2022/08/04 11:31:24;;;;;;;1.98;0.85;;;32.10;79.00;;;;;;4894333;29;20143;-79
2022/08/04 11:34:07;;;;;;;2.17;1.00;;;32.30;75.70;;;;;;4914300;29;20503;-79
2022/08/04 11:36:52;;;;;;;3.70;1.13;;;32.40;75.30;;;;;;4914363;29;20047;-78
2022/08/04 11:39:41;;;;;;;3.13;1.88;;;32.10;74.20;;;;;;4914283;29;20530;-79
2022/08/04 11:42:27;;;;;;;4.05;1.05;;;31.60;78.10;;;;;;4914261;29;20082;-79
2022/08/04 11:45:00;;;;;;;4.78;1.48;;;31.30;77.60;;;;;;4914667;29;20052;-79
2022/08/04 11:47:54;;;;;;;6.13;0.97;;;31.10;79.20;;;;;;4913157;29;20048;-79
2022/08/04 11:50:40;;;;;;;4.68;1.10;;;31.10;81.40;;;;;;4914068;29;20052;-78
2022/08/04 11:53:07;;;;;;;2.58;0.77;;;31.20;84.20;;;;;;4902989;29;20042;-79
2022/08/04 11:55:34;;;;;;;3.70;1.20;;;31.30;81.90;;;;;;4912514;29;20495;-78
2022/08/04 11:58:00;;;;;;;6.65;1.52;;;31.50;79.90;;;;;;4909133;29;20041;-79
2022/08/04 12:00:29;;;;;;;5.13;1.27;;;31.30;77.10;;;;;;4909544;29;20046;-78
2022/08/04 12:03:14;;;;;;;9.68;5.00;;;31.10;77.20;;;;;;4906630;29;20517;-78
2022/08/04 12:05:53;;;;;;;9.07;3.00;;;30.70;78.00;;;;;;4906311;29;20100;-78
2022/08/04 12:08:24;;;;;;;4.53;1.30;;;30.30;79.10;;;;;;4917267;29;20052;-78
2022/08/04 12:10:56;;;;;;;7.55;1.30;;;29.90;79.80;;;;;;4911348;29;20579;-78
2022/08/04 12:13:37;;;;;;;3.80;0.93;;;29.70;82.30;;;;;;4917316;29;20040;-78
2022/08/04 12:16:02;;;;;;;3.08;0.93;;;29.50;83.80;;;;;;4911774;29;20037;-78
2022/08/04 12:18:41;;;;;;;6.22;0.93;;;29.10;88.50;;;;;;4902493;29;20056;-78
2022/08/04 12:21:17;;;;;;;5.20;1.02;;;29.00;89.10;;;;;;4913110;29;20519;-78
2022/08/04 12:23:46;;;;;;;3.70;1.25;;;28.80;90.80;;;;;;4894128;29;20059;-78
2022/08/04 12:26:19;;;;;;;4.68;0.73;;;28.50;91.20;;;;;;4914376;29;20048;-78
2022/08/04 12:28:49;;;;;;;2.17;0.52;;;28.40;92.00;;;;;;4930736;29;20048;-78
2022/08/04 12:31:39;;;;;;;3.88;0.82;;;28.30;92.50;;;;;;4912388;29;20044;-78
2022/08/04 12:34:15;;;;;;;3.55;0.80;;;28.30;93.30;;;;;;4905360;29;20547;-78
2022/08/04 12:36:59;;;;;;;4.25;0.85;;;28.30;93.70;;;;;;4904195;29;20044;-78
2022/08/04 12:39:26;;;;;;;1.83;0.60;;;28.20;94.30;;;;;;4913493;29;20372;-78
2022/08/04 12:41:57;;;;;;;3.40;1.17;;;27.90;94.90;;;;;;4918155;29;20044;-78
2022/08/04 12:44:30;;;;;;;4.15;0.70;;;27.80;95.70;;;;;;4910878;29;20404;-78
2022/08/04 12:46:58;;;;;;;3.15;0.55;;;27.70;96.50;;;;;;4916874;29;20044;-78
2022/08/04 12:49:24;;;;;;;2.63;0.77;;;27.50;97.10;;;;;;4919180;29;20423;-78
2022/08/04 12:51:52;;;;;;;3.58;0.60;;;27.30;96.60;;;;;;4911876;29;20044;-78
2022/08/04 12:54:24;;;;;;;3.05;0.60;;;27.10;96.90;;;;;;4903504;29;20044;-78
2022/08/04 12:56:50;;;;;;;4.15;0.70;;;27.00;97.10;;;;;;4906906;29;20484;-78
2022/08/04 12:59:16;;;;;;;1.77;0.40;;;27.00;97.70;;;;;;4892228;29;20066;-78
2022/08/04 13:01:47;;;;;;;4.10;0.50;;;26.80;97.80;;;;;;4908009;29;20051;-79
2022/08/04 13:04:15;;;;;;;3.72;0.50;;;26.60;98.10;;;;;;4910409;29;20043;-79
2022/08/04 13:06:43;;;;;;;2.50;0.60;;;26.40;99.70;;;;;;4915412;29;20044;-79
2022/08/04 13:09:16;;;;;;;2.55;0.60;;;26.30;99.50;;;;;;4900901;29;20048;-79
2022/08/04 13:11:49;;;;;;;4.35;0.93;;;26.20;99.90;;;;;;4901252;29;20087;-79
2022/08/04 13:14:16;;;;;;;2.30;0.65;;;26.20;99.90;;;;;;4916450;29;20128;-79
2022/08/04 13:16:42;;;;;;;3.40;1.25;;;26.30;99.90;;;;;;4916135;29;20494;-78
2022/08/04 13:19:08;;;;;;;1.40;0.35;;;26.30;99.30;;;;;;4914998;29;20040;-78
2022/08/04 13:21:41;;;;;;;3.83;0.73;;;26.40;99.80;;;;;;4916422;29;20084;-78
2022/08/04 13:24:12;;;;;;;1.70;0.40;;;26.70;99.90;;;;;;4900646;29;20048;-78
2022/08/04 13:26:48;;;;;;;1.15;0.30;;;26.80;99.20;;;;;;4891722;29;20376;-78
2022/08/04 13:29:14;;;;;;;3.65;0.40;;;27.00;98.60;;;;;;4913072;29;20463;-78
2022/08/04 13:31:43;;;;;;;1.00;0.30;;;27.10;98.60;;;;;;4915576;29;20403;-78